Alma, New York
Current Conditions -  °F | °C
As of 12:56 PM on Thursday 30 Oct 2014 (Local Time) from KELZ Reporting Station
Overcast Overcast  
Wind Chill: 35°   Ceiling: 2200
Heat Index: 42°   Visibility: 10mi
Dew Point: 33°   Wind: 14mph
Humidity: 70%   Direction: 300°WNW
Pressure: 30.05"   Gusts: NA
Location:  42.01°N, 78.06°W
Report Text: KELZ 301656Z AUTO 30012KT 10SM OVC022 06/01 A3005 RMK AO2 SLP189 T00560006
Loading
Personal Weather Stations






























Interactive Weather Map
Tropical Storm Tracking
New forecast layout! Learn more

10-Day Weather Forecast

Advertisements
Track Severe Weather on mobile